Time;durP1;ratioP1;P1;durP2;ratioP2;P2;SDS_P1;SDS_P2;PMS_P1;PMS_P2;Temp;Humidity;BMP_temperature;BMP_pressure;BME280_temperature;BME280_humidity;BME280_pressure;Samples;Min_cycle;Max_cycle;Signal;HPM_P1;HPM_P2
2022/12/02 00:01:14;;;;;;;23.30;13.27;;;2.90;99.90;;;;;;4163032;28;20294;-62
2022/12/02 00:03:21;;;;;;;23.17;12.43;;;2.90;99.90;;;;;;4163451;28;20855;-62
2022/12/02 00:05:31;;;;;;;25.00;13.77;;;2.90;99.90;;;;;;4162832;28;20336;-63
2022/12/02 00:07:32;;;;;;;22.83;12.70;;;2.90;99.90;;;;;;4163871;28;20680;-62
2022/12/02 00:09:35;;;;;;;21.70;13.13;;;2.90;99.90;;;;;;4162608;28;20038;-62
2022/12/02 00:11:39;;;;;;;22.53;12.70;;;2.90;99.90;;;;;;4164104;28;20811;-62
2022/12/02 00:13:42;;;;;;;20.87;12.30;;;2.90;99.90;;;;;;4162993;28;20762;-62
2022/12/02 00:15:47;;;;;;;25.63;13.77;;;2.90;99.90;;;;;;4178719;28;20320;-61
2022/12/02 00:17:48;;;;;;;24.53;13.70;;;2.80;99.90;;;;;;4162843;28;20690;-61
2022/12/02 00:19:49;;;;;;;24.50;13.53;;;2.80;99.90;;;;;;4163684;28;20278;-61
2022/12/02 00:21:52;;;;;;;24.30;13.50;;;2.80;99.90;;;;;;4162964;28;20336;-63
2022/12/02 00:23:53;;;;;;;22.73;13.13;;;2.80;99.90;;;;;;4163503;28;20267;-62
2022/12/02 00:25:54;;;;;;;24.07;14.20;;;2.80;99.90;;;;;;4163108;28;20247;-62
2022/12/02 00:27:55;;;;;;;25.37;13.83;;;2.80;99.90;;;;;;4162912;28;20329;-61
2022/12/02 00:29:56;;;;;;;24.03;13.23;;;2.80;99.90;;;;;;4162994;28;20258;-62
2022/12/02 00:31:57;;;;;;;22.30;13.33;;;2.80;99.90;;;;;;4162783;28;20263;-63
2022/12/02 00:33:59;;;;;;;23.63;13.57;;;2.80;99.90;;;;;;4163212;28;20336;-62
2022/12/02 00:36:00;;;;;;;25.20;12.93;;;2.70;99.90;;;;;;4162481;28;20316;-61
2022/12/02 00:38:01;;;;;;;26.00;13.90;;;2.70;99.90;;;;;;4163764;28;20662;-61
2022/12/02 00:40:03;;;;;;;23.43;13.83;;;2.70;99.90;;;;;;4162263;28;20266;-61
2022/12/02 00:42:04;;;;;;;22.80;13.00;;;2.70;99.90;;;;;;4163121;28;20325;-63
2022/12/02 00:46:30;;;;;;;22.97;13.07;;;2.70;99.90;;;;;;4163533;28;20336;-60
2022/12/02 00:48:32;;;;;;;25.97;14.43;;;2.70;99.90;;;;;;4162510;28;20747;-62
2022/12/02 00:50:33;;;;;;;26.53;14.53;;;2.70;99.90;;;;;;4163500;28;20262;-63
2022/12/02 00:52:34;;;;;;;23.43;13.73;;;2.70;99.90;;;;;;4162800;28;20262;-63
2022/12/02 00:54:35;;;;;;;24.10;14.30;;;2.70;99.90;;;;;;4163595;28;20263;-62
2022/12/02 00:56:37;;;;;;;26.30;15.37;;;2.70;99.90;;;;;;4162367;28;20266;-61
2022/12/02 00:58:38;;;;;;;26.03;14.67;;;2.70;99.90;;;;;;4163388;28;20297;-63
2022/12/02 01:00:39;;;;;;;23.03;13.70;;;2.80;99.90;;;;;;4161687;28;20344;-60
2022/12/02 01:02:40;;;;;;;27.00;15.40;;;2.70;99.90;;;;;;4163064;28;20287;-61
2022/12/02 01:04:41;;;;;;;26.70;14.73;;;2.80;99.90;;;;;;4161524;28;20712;-62
2022/12/02 01:06:42;;;;;;;24.17;14.07;;;2.70;99.90;;;;;;4162268;28;20251;-67
2022/12/02 01:08:44;;;;;;;23.60;13.93;;;2.80;99.90;;;;;;4161964;28;20283;-63
2022/12/02 01:10:45;;;;;;;30.73;15.23;;;2.80;99.90;;;;;;4162187;28;20267;-63
2022/12/02 01:12:46;;;;;;;24.83;13.40;;;2.70;99.90;;;;;;4162436;28;20397;-62
2022/12/02 01:14:48;;;;;;;24.47;14.17;;;2.80;99.90;;;;;;4161817;28;20694;-61
2022/12/02 01:16:49;;;;;;;24.50;13.47;;;2.80;99.90;;;;;;4162599;28;20333;-61
2022/12/02 01:18:50;;;;;;;23.13;13.37;;;2.80;99.90;;;;;;4144268;28;20271;-64
2022/12/02 01:20:51;;;;;;;23.77;13.60;;;2.80;99.90;;;;;;4163265;28;20259;-61
2022/12/02 01:22:52;;;;;;;25.87;14.23;;;2.80;99.90;;;;;;4162365;28;20290;-64
2022/12/02 01:24:53;;;;;;;24.90;13.63;;;2.80;99.90;;;;;;4162877;28;20702;-63
2022/12/02 01:26:55;;;;;;;25.70;13.90;;;2.80;99.90;;;;;;4161541;28;20746;-65
2022/12/02 01:28:56;;;;;;;28.47;14.40;;;2.80;99.90;;;;;;4162036;28;20278;-61
2022/12/02 01:30:57;;;;;;;26.63;14.93;;;2.80;99.90;;;;;;4161586;28;20255;-62
2022/12/02 01:32:58;;;;;;;23.53;12.90;;;2.80;99.90;;;;;;4162555;28;20735;-64
2022/12/02 01:34:59;;;;;;;24.67;13.60;;;2.70;99.90;;;;;;4161360;28;20271;-63
2022/12/02 01:37:00;;;;;;;25.27;13.40;;;2.70;99.90;;;;;;4161873;28;20353;-68
2022/12/02 01:39:01;;;;;;;28.30;14.40;;;2.80;99.90;;;;;;4144587;28;20268;-62
2022/12/02 01:41:03;;;;;;;23.30;13.53;;;2.70;99.90;;;;;;4144056;28;20298;-62
2022/12/02 01:43:04;;;;;;;23.90;13.53;;;2.80;99.90;;;;;;4162573;28;20298;-61
2022/12/02 01:45:07;;;;;;;24.63;13.33;;;2.70;99.90;;;;;;4161401;28;20274;-61
2022/12/02 01:47:08;;;;;;;22.37;13.03;;;2.80;99.90;;;;;;4162573;28;20313;-62
2022/12/02 01:49:11;;;;;;;24.50;13.97;;;2.80;99.90;;;;;;4161619;28;20774;-62
2022/12/02 01:51:12;;;;;;;25.57;14.23;;;2.80;99.90;;;;;;4162658;28;20275;-62
2022/12/02 01:53:13;;;;;;;24.70;14.10;;;2.80;99.90;;;;;;4161915;28;20262;-62
2022/12/02 01:55:19;;;;;;;22.63;13.20;;;2.80;99.90;;;;;;4162116;28;20266;-62
2022/12/02 01:57:25;;;;;;;24.30;14.70;;;2.80;99.90;;;;;;4161365;28;20263;-62
2022/12/02 01:59:26;;;;;;;23.93;13.37;;;2.80;99.90;;;;;;4162057;28;20670;-67
2022/12/02 02:01:32;;;;;;;23.37;13.93;;;2.80;99.90;;;;;;4160601;28;20274;-62
2022/12/02 02:03:33;;;;;;;23.80;13.63;;;2.80;99.90;;;;;;4162247;28;20278;-66
2022/12/02 02:05:35;;;;;;;26.17;14.40;;;2.80;99.90;;;;;;4161277;28;20313;-61
2022/12/02 02:07:37;;;;;;;26.20;14.63;;;2.80;99.90;;;;;;4161838;28;20340;-63
2022/12/02 02:09:39;;;;;;;23.37;13.97;;;2.80;99.90;;;;;;4161482;28;20743;-62
2022/12/02 02:11:40;;;;;;;25.27;14.23;;;2.90;99.90;;;;;;4161776;28;21182;-62
2022/12/02 02:13:42;;;;;;;22.83;12.93;;;2.90;99.90;;;;;;4161726;28;20317;-61
2022/12/02 02:15:44;;;;;;;27.37;14.37;;;2.90;99.90;;;;;;4160773;28;20321;-62
2022/12/02 02:17:46;;;;;;;28.87;13.63;;;2.90;99.90;;;;;;4161272;28;20275;-61
2022/12/02 02:19:47;;;;;;;25.23;14.07;;;2.90;99.90;;;;;;4161155;28;20337;-61
2022/12/02 02:21:52;;;;;;;26.20;14.37;;;2.90;99.90;;;;;;4162139;28;20561;-60
2022/12/02 02:23:53;;;;;;;24.50;14.70;;;2.80;99.90;;;;;;4161100;28;20681;-62
2022/12/02 02:25:57;;;;;;;24.60;14.10;;;2.80;99.90;;;;;;4162080;28;20275;-62
2022/12/02 02:28:00;;;;;;;29.67;15.43;;;2.80;99.90;;;;;;4160306;28;20317;-66
2022/12/02 02:30:01;;;;;;;25.13;14.67;;;2.80;99.90;;;;;;4161825;28;21034;-61
2022/12/02 02:32:03;;;;;;;24.87;14.47;;;2.80;99.90;;;;;;4160877;28;20316;-61
2022/12/02 02:34:04;;;;;;;28.90;16.03;;;2.80;99.90;;;;;;4161639;28;20286;-61
2022/12/02 02:36:06;;;;;;;26.27;15.57;;;2.80;99.90;;;;;;4160842;28;20321;-62
2022/12/02 02:38:09;;;;;;;26.90;15.77;;;2.80;99.90;;;;;;4161401;28;20762;-62
2022/12/02 02:40:15;;;;;;;25.17;14.93;;;2.80;99.90;;;;;;4160546;28;20293;-62
2022/12/02 02:42:16;;;;;;;30.37;15.97;;;2.80;99.90;;;;;;4161192;28;20283;-61
2022/12/02 02:44:17;;;;;;;27.73;15.23;;;2.80;99.90;;;;;;4160586;28;20817;-61
2022/12/02 02:46:19;;;;;;;29.53;15.53;;;2.80;99.90;;;;;;4160997;28;20290;-63
2022/12/02 02:48:21;;;;;;;27.07;15.57;;;2.70;99.90;;;;;;4161270;28;20258;-64
2022/12/02 02:50:23;;;;;;;26.57;15.87;;;2.70;99.90;;;;;;4161126;28;21141;-62
2022/12/02 02:52:25;;;;;;;31.87;17.77;;;2.70;99.90;;;;;;4161774;28;20267;-62
2022/12/02 02:54:26;;;;;;;37.57;19.07;;;2.70;99.90;;;;;;4160279;28;20337;-62
2022/12/02 02:56:27;;;;;;;30.50;16.33;;;2.70;99.90;;;;;;4161335;28;20546;-61
2022/12/02 02:58:28;;;;;;;33.63;17.60;;;2.70;99.90;;;;;;4142885;28;20586;-61
2022/12/02 03:00:29;;;;;;;33.97;17.33;;;2.70;99.90;;;;;;4160823;28;21179;-62
2022/12/02 03:02:31;;;;;;;33.73;18.10;;;2.70;99.90;;;;;;4160591;28;20317;-62
2022/12/02 03:04:32;;;;;;;30.70;16.53;;;2.70;99.90;;;;;;4161422;28;20336;-61
2022/12/02 03:06:34;;;;;;;30.03;16.47;;;2.80;99.90;;;;;;4159718;28;20283;-61
2022/12/02 03:08:39;;;;;;;33.90;18.00;;;2.70;99.90;;;;;;4161705;28;20278;-67
2022/12/02 03:10:41;;;;;;;30.17;17.17;;;2.80;99.90;;;;;;4160548;28;20330;-62
2022/12/02 03:12:42;;;;;;;30.87;17.00;;;2.80;99.90;;;;;;4161683;28;20274;-61
2022/12/02 03:14:44;;;;;;;28.87;16.57;;;2.80;99.90;;;;;;4160642;28;20251;-63
2022/12/02 03:16:46;;;;;;;31.97;17.20;;;2.80;99.90;;;;;;4161296;28;20325;-61
2022/12/02 03:18:50;;;;;;;29.97;16.50;;;2.80;99.90;;;;;;4160827;28;20800;-61
2022/12/02 03:20:51;;;;;;;31.97;17.00;;;2.80;99.90;;;;;;4161059;28;20328;-63
2022/12/02 03:22:52;;;;;;;33.83;18.73;;;2.90;99.90;;;;;;4161272;28;20291;-63
2022/12/02 03:24:54;;;;;;;29.40;17.57;;;2.90;99.90;;;;;;4160207;28;20348;-62
2022/12/02 03:26:56;;;;;;;32.53;18.43;;;2.90;99.90;;;;;;4161338;28;20267;-63
2022/12/02 03:28:59;;;;;;;32.40;18.43;;;2.90;99.90;;;;;;4160471;28;20808;-62
2022/12/02 03:31:00;;;;;;;32.80;18.07;;;2.90;99.90;;;;;;4164379;28;20296;-62
2022/12/02 03:33:02;;;;;;;34.00;18.80;;;2.80;99.90;;;;;;4162817;28;20279;-63
2022/12/02 03:35:04;;;;;;;32.80;18.03;;;2.80;99.90;;;;;;4164262;28;20320;-61
2022/12/02 03:37:05;;;;;;;33.23;18.13;;;2.80;99.90;;;;;;4163212;28;20328;-61
2022/12/02 03:39:07;;;;;;;29.17;17.23;;;2.70;99.90;;;;;;4164698;28;20282;-64
2022/12/02 03:41:10;;;;;;;30.23;18.00;;;2.70;99.90;;;;;;4162787;28;20333;-67
2022/12/02 03:43:11;;;;;;;35.90;18.30;;;2.70;99.90;;;;;;4163857;28;20737;-61
2022/12/02 03:45:12;;;;;;;32.53;18.80;;;2.70;99.90;;;;;;4163316;28;20267;-62
2022/12/02 03:47:13;;;;;;;33.87;18.10;;;2.70;99.90;;;;;;4163716;28;20287;-66
2022/12/02 03:49:17;;;;;;;30.70;18.17;;;2.70;99.90;;;;;;4163512;28;20321;-62
2022/12/02 03:51:18;;;;;;;30.10;16.60;;;2.70;99.90;;;;;;4163979;28;20642;-62
2022/12/02 03:53:20;;;;;;;30.23;17.90;;;2.70;99.90;;;;;;4163544;28;20278;-64
2022/12/02 03:55:21;;;;;;;31.37;17.80;;;2.70;99.90;;;;;;4163456;28;20324;-63
2022/12/02 03:57:23;;;;;;;30.40;18.13;;;2.60;99.90;;;;;;4163778;28;20266;-62
2022/12/02 03:59:27;;;;;;;32.57;18.57;;;2.60;99.90;;;;;;4163361;28;20255;-63
2022/12/02 04:01:29;;;;;;;36.47;18.20;;;2.70;99.90;;;;;;4163609;28;20279;-64
2022/12/02 04:03:30;;;;;;;35.60;19.47;;;2.60;99.90;;;;;;4162616;28;20340;-62
2022/12/02 04:05:31;;;;;;;34.83;18.77;;;2.60;99.90;;;;;;4163754;28;20278;-67
2022/12/02 04:07:32;;;;;;;31.33;17.60;;;2.60;99.90;;;;;;4162842;28;20808;-62
2022/12/02 04:09:33;;;;;;;32.13;18.90;;;2.60;99.90;;;;;;4164166;28;20313;-64
2022/12/02 04:11:34;;;;;;;32.57;17.93;;;2.60;99.90;;;;;;4162480;28;20270;-61
2022/12/02 04:13:35;;;;;;;32.13;18.17;;;2.60;99.90;;;;;;4163870;28;20282;-64
2022/12/02 04:15:36;;;;;;;28.33;17.13;;;2.60;99.90;;;;;;4162916;28;20255;-61
2022/12/02 04:17:37;;;;;;;33.83;18.33;;;2.60;99.90;;;;;;4163878;28;20312;-62
2022/12/02 04:19:39;;;;;;;31.00;18.03;;;2.60;99.90;;;;;;4162714;28;20596;-61
2022/12/02 04:21:40;;;;;;;36.40;18.33;;;2.60;99.90;;;;;;4163212;28;20270;-61
2022/12/02 04:23:41;;;;;;;33.33;17.60;;;2.60;99.90;;;;;;4163405;28;20333;-61
2022/12/02 04:25:43;;;;;;;35.43;19.30;;;2.60;99.90;;;;;;4163421;28;20600;-60
2022/12/02 04:27:44;;;;;;;30.53;18.13;;;2.60;99.90;;;;;;4163382;28;20305;-63
2022/12/02 04:29:45;;;;;;;32.40;19.07;;;2.60;99.90;;;;;;4162677;28;20270;-61
2022/12/02 04:31:46;;;;;;;31.73;19.37;;;2.60;99.90;;;;;;4162734;28;20279;-62
2022/12/02 04:33:47;;;;;;;33.00;18.60;;;2.60;99.90;;;;;;4161873;28;20274;-63
2022/12/02 04:35:48;;;;;;;34.90;19.00;;;2.60;99.90;;;;;;4163271;28;20667;-62
2022/12/02 04:37:54;;;;;;;32.13;18.87;;;2.60;99.90;;;;;;4162103;28;20377;-62
2022/12/02 04:39:55;;;;;;;34.60;18.43;;;2.70;99.90;;;;;;4163652;28;20316;-61
2022/12/02 04:41:56;;;;;;;32.53;17.97;;;2.70;99.90;;;;;;4161096;28;20345;-61
2022/12/02 04:43:57;;;;;;;34.73;17.97;;;2.70;99.90;;;;;;4163580;28;20354;-62
2022/12/02 04:45:58;;;;;;;28.57;16.60;;;2.70;99.90;;;;;;4162183;28;20263;-62
2022/12/02 04:47:59;;;;;;;30.00;18.50;;;2.70;99.90;;;;;;4163433;28;20328;-62
2022/12/02 04:50:01;;;;;;;33.00;18.53;;;2.70;99.90;;;;;;4162155;28;20644;-61
2022/12/02 04:52:02;;;;;;;33.00;19.90;;;2.70;99.90;;;;;;4163282;28;20658;-61
2022/12/02 04:54:03;;;;;;;33.13;19.70;;;2.70;99.90;;;;;;4162425;28;20618;-61
2022/12/02 04:56:05;;;;;;;33.00;19.33;;;2.60;99.90;;;;;;4162876;28;20336;-63
2022/12/02 04:58:06;;;;;;;30.57;18.00;;;2.70;99.90;;;;;;4162686;28;20321;-63
2022/12/02 05:00:08;;;;;;;34.00;19.57;;;2.60;99.90;;;;;;4161892;28;20309;-62
2022/12/02 05:02:09;;;;;;;35.03;17.67;;;2.60;99.90;;;;;;4159344;28;20689;-64
2022/12/02 05:04:10;;;;;;;33.33;18.77;;;2.60;99.90;;;;;;4161718;28;20387;-62
2022/12/02 05:06:11;;;;;;;35.97;20.30;;;2.60;99.90;;;;;;4163128;28;20270;-61
2022/12/02 05:08:12;;;;;;;34.63;19.07;;;2.70;99.90;;;;;;4161896;28;20763;-64
2022/12/02 05:10:13;;;;;;;34.60;20.07;;;2.70;99.90;;;;;;4163297;28;20263;-62
2022/12/02 05:12:15;;;;;;;39.90;21.10;;;2.70;99.90;;;;;;4161619;28;20271;-62
2022/12/02 05:14:16;;;;;;;32.67;19.73;;;2.60;99.90;;;;;;4162691;28;20267;-62
2022/12/02 05:16:17;;;;;;;39.47;21.23;;;2.60;99.90;;;;;;4160762;28;20658;-64
2022/12/02 05:18:18;;;;;;;38.27;22.60;;;2.60;99.90;;;;;;4162579;28;20266;-62
2022/12/02 05:20:19;;;;;;;39.10;21.33;;;2.60;99.90;;;;;;4161784;28;20735;-63
2022/12/02 05:22:20;;;;;;;35.07;20.47;;;2.60;99.90;;;;;;4162893;28;20263;-64
2022/12/02 05:24:21;;;;;;;43.13;25.27;;;2.60;99.90;;;;;;4162422;28;20762;-63
2022/12/02 05:26:22;;;;;;;47.07;26.43;;;2.50;99.90;;;;;;4162173;28;20263;-63
2022/12/02 05:28:23;;;;;;;42.80;24.53;;;2.50;99.90;;;;;;4161058;28;20279;-62
2022/12/02 05:30:25;;;;;;;41.97;24.07;;;2.50;99.90;;;;;;4161073;28;20737;-62
2022/12/02 05:32:26;;;;;;;45.90;23.70;;;2.50;99.90;;;;;;4162023;28;20286;-64
2022/12/02 05:34:27;;;;;;;47.63;25.97;;;2.50;99.90;;;;;;4161254;28;21035;-61
2022/12/02 05:36:28;;;;;;;48.47;25.93;;;2.50;99.90;;;;;;4162241;28;20286;-63
2022/12/02 05:38:29;;;;;;;49.13;27.90;;;2.50;99.90;;;;;;4161140;28;20283;-64
2022/12/02 05:40:31;;;;;;;51.27;27.47;;;2.50;99.90;;;;;;4162170;28;20407;-62
2022/12/02 05:42:33;;;;;;;40.63;24.00;;;2.50;99.90;;;;;;4160885;28;20279;-62
2022/12/02 05:44:34;;;;;;;41.37;24.00;;;2.50;99.90;;;;;;4162757;28;20278;-61
2022/12/02 05:46:35;;;;;;;38.13;22.00;;;2.50;99.90;;;;;;4161046;28;20797;-62
2022/12/02 05:48:37;;;;;;;42.27;22.87;;;2.50;99.90;;;;;;4162179;28;20275;-62
2022/12/02 05:50:39;;;;;;;43.37;24.80;;;2.50;99.90;;;;;;4160662;28;20827;-62
2022/12/02 05:52:42;;;;;;;42.03;24.10;;;2.50;99.90;;;;;;4161333;28;20286;-63
2022/12/02 05:54:43;;;;;;;42.10;25.37;;;2.50;99.90;;;;;;4161113;28;20837;-63
2022/12/02 05:56:45;;;;;;;46.77;25.87;;;2.50;99.90;;;;;;4176681;28;20278;-62
2022/12/02 05:58:46;;;;;;;54.03;29.83;;;2.50;99.90;;;;;;4161375;28;20266;-62
2022/12/02 06:00:57;;;;;;;58.83;29.90;;;2.50;99.90;;;;;;4162444;28;20271;-67
2022/12/02 06:03:04;;;;;;;55.80;29.65;;;2.40;99.90;;;;;;4161118;28;20345;-63
2022/12/02 06:05:16;;;;;;;53.27;29.60;;;2.40;99.90;;;;;;4161536;28;20017;-62
2022/12/02 06:07:17;;;;;;;57.43;32.43;;;2.40;99.90;;;;;;4161722;28;20401;-62
2022/12/02 06:09:24;;;;;;;54.27;31.30;;;2.40;99.90;;;;;;4161318;28;20279;-63
2022/12/02 06:11:33;;;;;;;56.10;32.60;;;2.40;99.90;;;;;;4161933;28;20275;-62
2022/12/02 06:13:37;;;;;;;56.20;33.40;;;2.40;99.90;;;;;;4159597;28;20674;-63
2022/12/02 06:15:38;;;;;;;51.97;31.33;;;2.40;99.90;;;;;;4160843;28;20321;-62
2022/12/02 06:17:39;;;;;;;54.67;31.17;;;2.50;99.90;;;;;;4160422;28;20340;-63
2022/12/02 06:19:52;;;;;;;53.23;28.77;;;2.50;99.90;;;;;;4161541;28;20733;-62
2022/12/02 06:21:55;;;;;;;51.27;29.23;;;2.50;99.90;;;;;;4160241;28;20341;-64
2022/12/02 06:23:57;;;;;;;51.07;28.27;;;2.50;99.90;;;;;;4161364;28;20341;-61
2022/12/02 06:25:59;;;;;;;48.97;28.67;;;2.50;99.90;;;;;;4160497;28;20340;-62
2022/12/02 06:28:19;;;;;;;46.77;27.97;;;2.50;99.90;;;;;;4161713;28;20278;-63
2022/12/02 06:30:21;;;;;;;49.08;28.52;;;2.60;99.90;;;;;;4160663;28;20282;-62
2022/12/02 06:32:23;;;;;;;50.50;27.90;;;2.60;99.90;;;;;;4158795;28;20029;-64
2022/12/02 06:34:30;;;;;;;48.80;28.80;;;2.60;99.90;;;;;;4163732;28;20270;-64
2022/12/02 06:36:33;;;;;;;47.83;24.77;;;2.60;99.90;;;;;;4170670;28;20278;-64
2022/12/02 06:38:47;;;;;;;54.53;27.80;;;2.60;99.90;;;;;;4162137;28;20308;-63
2022/12/02 06:40:48;;;;;;;45.23;25.73;;;2.60;99.90;;;;;;4143718;28;20338;-64
2022/12/02 06:42:49;;;;;;;41.57;26.10;;;2.60;99.90;;;;;;4147211;28;20348;-62
2022/12/02 06:45:03;;;;;;;43.80;25.90;;;2.60;99.90;;;;;;4161170;28;20679;-63
2022/12/02 06:47:32;;;;;;;50.60;26.07;;;2.60;99.90;;;;;;4159656;28;20275;-62
2022/12/02 06:49:39;;;;;;;45.17;26.97;;;2.60;99.90;;;;;;4160837;28;20717;-64
2022/12/02 06:51:40;;;;;;;50.40;28.67;;;2.60;99.90;;;;;;4160550;28;20332;-62
2022/12/02 06:53:41;;;;;;;46.17;25.43;;;2.60;99.90;;;;;;4159129;28;20817;-64
2022/12/02 06:55:44;;;;;;;48.10;27.63;;;2.60;99.90;;;;;;4159480;28;20267;-65
2022/12/02 06:57:45;;;;;;;45.73;25.57;;;2.60;99.90;;;;;;4160766;28;20331;-68
2022/12/02 06:59:47;;;;;;;45.33;25.80;;;2.60;99.90;;;;;;4159845;28;20352;-64
2022/12/02 07:01:56;;;;;;;41.50;24.30;;;2.60;99.90;;;;;;4136888;28;20291;-63
2022/12/02 07:04:07;;;;;;;43.60;25.53;;;2.70;99.90;;;;;;4160404;28;20294;-62
2022/12/02 07:06:17;;;;;;;41.25;25.50;;;2.70;99.90;;;;;;4160446;28;20352;-64
2022/12/02 07:08:18;;;;;;;42.80;24.95;;;2.70;99.90;;;;;;4163930;28;20477;-63
2022/12/02 07:10:24;;;;;;;43.87;26.00;;;2.70;99.90;;;;;;4164602;28;20107;-64
2022/12/02 07:12:33;;;;;;;41.33;23.40;;;2.70;99.90;;;;;;4163097;28;20270;-63
2022/12/02 07:14:45;;;;;;;37.10;21.83;;;2.80;99.90;;;;;;4163354;28;20282;-61
2022/12/02 07:16:48;;;;;;;36.83;20.60;;;2.70;99.90;;;;;;4157500;28;20614;-64
2022/12/02 07:18:49;;;;;;;37.83;20.20;;;2.80;99.90;;;;;;4163280;28;20279;-68
2022/12/02 07:20:50;;;;;;;32.00;18.70;;;2.80;99.90;;;;;;4162691;28;20780;-62
2022/12/02 07:23:00;;;;;;;30.90;18.50;;;2.80;99.90;;;;;;4164134;28;20821;-62
2022/12/02 07:25:15;;;;;;;31.48;18.63;;;2.80;99.90;;;;;;4164506;28;20275;-63
2022/12/02 07:27:30;;;;;;;31.83;18.37;;;2.80;99.90;;;;;;4163151;28;20037;-63
2022/12/02 07:29:32;;;;;;;34.47;19.97;;;2.80;99.90;;;;;;4164191;28;20255;-63
2022/12/02 07:31:33;;;;;;;30.50;17.43;;;2.80;99.90;;;;;;4160942;28;20687;-63
2022/12/02 07:33:34;;;;;;;31.57;18.13;;;2.90;99.90;;;;;;4146226;28;20302;-61
2022/12/02 07:35:35;;;;;;;30.80;16.73;;;2.90;99.90;;;;;;4162610;28;20299;-63
2022/12/02 07:37:37;;;;;;;33.47;17.00;;;2.90;99.90;;;;;;4163090;28;20747;-61
2022/12/02 07:39:38;;;;;;;26.90;16.07;;;3.00;99.90;;;;;;4163131;28;20316;-64
2022/12/02 07:41:39;;;;;;;28.13;16.73;;;3.00;99.90;;;;;;4163380;28;20283;-63
2022/12/02 07:43:40;;;;;;;29.57;16.67;;;3.00;99.90;;;;;;4128670;28;20814;-63
2022/12/02 07:45:41;;;;;;;25.27;14.97;;;3.00;99.90;;;;;;4162326;28;20290;-63
2022/12/02 07:47:43;;;;;;;27.40;16.00;;;3.00;99.90;;;;;;4162326;28;20295;-63
2022/12/02 07:49:44;;;;;;;29.63;17.53;;;3.00;99.90;;;;;;4164545;28;20270;-62
2022/12/02 07:51:45;;;;;;;30.90;17.70;;;3.00;99.90;;;;;;4163069;28;20332;-63
2022/12/02 07:53:46;;;;;;;31.47;16.63;;;3.00;99.90;;;;;;4163582;28;20270;-64
2022/12/02 07:55:47;;;;;;;30.13;16.77;;;3.00;99.90;;;;;;4162079;28;20336;-62
2022/12/02 07:57:48;;;;;;;30.93;16.57;;;3.10;99.90;;;;;;4162840;28;20826;-63
2022/12/02 07:59:49;;;;;;;31.43;17.20;;;3.20;99.90;;;;;;4162258;28;20328;-61
2022/12/02 08:01:51;;;;;;;32.03;16.67;;;3.20;99.90;;;;;;4162320;28;20364;-63
2022/12/02 08:03:52;;;;;;;29.30;15.87;;;3.20;99.90;;;;;;4161744;28;20286;-61
2022/12/02 08:05:53;;;;;;;29.73;15.60;;;3.30;99.90;;;;;;4162599;28;20313;-62
2022/12/02 08:07:54;;;;;;;29.23;18.17;;;3.30;99.90;;;;;;4162512;28;20275;-63
2022/12/02 08:09:56;;;;;;;29.93;17.10;;;3.30;99.90;;;;;;4144519;28;20337;-65
2022/12/02 08:11:57;;;;;;;31.07;18.40;;;3.30;99.90;;;;;;4163334;28;20596;-63
2022/12/02 08:13:58;;;;;;;32.67;19.77;;;3.30;99.90;;;;;;4162343;28;20904;-64
2022/12/02 08:15:59;;;;;;;33.60;18.60;;;3.40;99.90;;;;;;4162337;28;20332;-66
2022/12/02 08:18:00;;;;;;;32.53;18.03;;;3.40;99.90;;;;;;4162312;28;20275;-66
2022/12/02 08:20:03;;;;;;;31.90;19.17;;;3.40;99.90;;;;;;4146229;28;20310;-66
2022/12/02 08:22:04;;;;;;;34.00;19.57;;;3.50;99.90;;;;;;4162353;28;20699;-65
2022/12/02 08:24:06;;;;;;;32.37;20.03;;;3.60;99.90;;;;;;4163837;28;20351;-64
2022/12/02 08:26:07;;;;;;;28.77;17.07;;;3.60;99.90;;;;;;4162491;28;20262;-64
2022/12/02 08:28:09;;;;;;;33.97;19.43;;;3.80;99.90;;;;;;4162609;28;20904;-64
2022/12/02 08:30:14;;;;;;;29.90;18.27;;;3.80;99.90;;;;;;4162910;28;20328;-63
2022/12/02 08:32:16;;;;;;;33.23;17.83;;;3.90;99.90;;;;;;4162063;28;20671;-64
2022/12/02 08:34:19;;;;;;;32.90;17.97;;;4.00;99.90;;;;;;4163392;28;20270;-64
2022/12/02 08:36:20;;;;;;;33.30;19.37;;;4.00;99.90;;;;;;4162536;28;20674;-63
2022/12/02 08:38:22;;;;;;;32.07;17.97;;;4.00;99.90;;;;;;4163191;28;20267;-62
2022/12/02 08:40:23;;;;;;;29.60;17.77;;;4.10;99.90;;;;;;4162398;28;20321;-63
2022/12/02 08:42:24;;;;;;;28.50;18.23;;;4.10;99.90;;;;;;4163397;28;20266;-62
2022/12/02 08:44:25;;;;;;;31.20;17.50;;;4.10;99.90;;;;;;4161495;28;20345;-63
2022/12/02 08:46:27;;;;;;;30.63;18.10;;;4.20;99.90;;;;;;4163245;28;20294;-61
2022/12/02 08:48:28;;;;;;;28.10;16.63;;;4.20;99.90;;;;;;4162164;28;20797;-62
2022/12/02 08:50:29;;;;;;;37.33;17.93;;;4.20;99.90;;;;;;4163027;28;20328;-63
2022/12/02 08:52:31;;;;;;;29.57;17.40;;;4.20;99.90;;;;;;4161317;28;20278;-63
2022/12/02 08:54:32;;;;;;;28.27;17.53;;;4.30;99.90;;;;;;4162946;28;20278;-64
2022/12/02 08:56:33;;;;;;;28.57;16.67;;;4.30;99.90;;;;;;4155735;28;20275;-64
2022/12/02 08:58:34;;;;;;;29.00;16.87;;;4.30;99.90;;;;;;4145319;28;20260;-63
2022/12/02 09:00:35;;;;;;;29.33;16.77;;;4.30;99.90;;;;;;4145483;28;20357;-62
2022/12/02 09:02:36;;;;;;;32.80;17.63;;;4.30;99.90;;;;;;4145416;28;20294;-66
2022/12/02 09:04:37;;;;;;;27.63;16.77;;;4.40;99.90;;;;;;4146492;28;20837;-63
2022/12/02 09:06:40;;;;;;;33.67;18.53;;;4.40;99.90;;;;;;4145339;28;20325;-64
2022/12/02 09:08:41;;;;;;;30.90;18.20;;;4.50;99.90;;;;;;4144878;28;20264;-64
2022/12/02 09:10:42;;;;;;;31.90;17.70;;;4.50;99.90;;;;;;4145741;28;20260;-66
2022/12/02 09:12:44;;;;;;;30.87;18.00;;;4.60;99.90;;;;;;4146679;28;20256;-61
2022/12/02 09:14:45;;;;;;;29.13;16.87;;;4.60;99.90;;;;;;4145183;28;20310;-66
2022/12/02 09:16:46;;;;;;;28.03;16.90;;;4.60;99.90;;;;;;4174780;28;20266;-68
2022/12/02 09:18:49;;;;;;;29.53;17.17;;;4.70;99.90;;;;;;4160764;28;20352;-63
2022/12/02 09:20:50;;;;;;;25.27;16.50;;;4.70;99.90;;;;;;4161071;28;20270;-63
2022/12/02 09:22:51;;;;;;;29.17;17.23;;;4.70;99.90;;;;;;4159841;28;20279;-64
2022/12/02 09:24:52;;;;;;;28.73;17.30;;;4.70;99.90;;;;;;4162265;28;20770;-64
2022/12/02 09:26:53;;;;;;;27.57;17.10;;;4.70;99.90;;;;;;4166526;28;20289;-63
2022/12/02 09:28:54;;;;;;;27.47;16.43;;;4.70;99.90;;;;;;4178635;28;20282;-63
2022/12/02 09:30:55;;;;;;;24.50;15.33;;;4.70;99.90;;;;;;4177299;28;20303;-63
2022/12/02 09:32:56;;;;;;;27.00;15.93;;;4.70;99.90;;;;;;4178066;28;20274;-64
2022/12/02 09:34:58;;;;;;;31.37;16.80;;;4.80;99.90;;;;;;4149263;28;20080;-65
2022/12/02 09:36:59;;;;;;;27.00;16.63;;;4.80;99.90;;;;;;4161512;28;20279;-64
2022/12/02 09:39:00;;;;;;;29.67;16.77;;;4.80;99.90;;;;;;4176872;28;20262;-63
2022/12/02 09:41:02;;;;;;;27.80;16.87;;;5.00;99.90;;;;;;4177904;28;20266;-66
2022/12/02 09:43:04;;;;;;;28.77;15.70;;;5.00;99.90;;;;;;4164405;28;20759;-65
2022/12/02 09:45:05;;;;;;;27.50;15.07;;;5.00;99.90;;;;;;4160354;28;20298;-64
2022/12/02 09:47:07;;;;;;;27.57;16.37;;;5.00;99.90;;;;;;4161887;28;20144;-64
2022/12/02 09:49:08;;;;;;;27.77;15.00;;;5.00;99.90;;;;;;4160033;28;20037;-64
2022/12/02 09:51:09;;;;;;;26.80;14.27;;;5.10;99.90;;;;;;4161289;28;20332;-66
2022/12/02 09:53:13;;;;;;;27.27;15.30;;;5.00;99.90;;;;;;4160819;28;20290;-66
2022/12/02 09:55:17;;;;;;;28.77;14.27;;;5.00;99.90;;;;;;4162770;28;20448;-63
2022/12/02 09:57:21;;;;;;;25.37;14.37;;;5.00;99.90;;;;;;4160572;28;20814;-63
2022/12/02 09:59:23;;;;;;;25.97;14.23;;;5.00;99.90;;;;;;4161546;28;20056;-68
2022/12/02 10:01:25;;;;;;;26.00;13.80;;;5.10;99.90;;;;;;4161027;28;20270;-64
2022/12/02 10:03:28;;;;;;;25.57;15.20;;;5.10;99.90;;;;;;4161491;28;20301;-68
2022/12/02 10:05:31;;;;;;;21.43;13.33;;;5.10;99.90;;;;;;4161012;28;20091;-67
2022/12/02 10:07:32;;;;;;;30.47;15.13;;;5.10;99.90;;;;;;4161191;28;20029;-63
2022/12/02 10:09:34;;;;;;;28.20;14.73;;;5.20;99.90;;;;;;4161140;28;20041;-63
2022/12/02 10:11:35;;;;;;;25.13;14.20;;;5.20;99.90;;;;;;4160140;28;20040;-65
2022/12/02 10:13:39;;;;;;;28.90;14.83;;;5.20;99.90;;;;;;4161648;28;20409;-64
2022/12/02 10:15:40;;;;;;;24.67;13.20;;;5.20;99.90;;;;;;4160615;28;20829;-63
2022/12/02 10:17:44;;;;;;;23.77;13.83;;;5.20;99.90;;;;;;4161065;28;20271;-64
2022/12/02 10:19:47;;;;;;;25.43;14.90;;;5.20;99.90;;;;;;4160311;28;20754;-63
2022/12/02 10:21:50;;;;;;;24.60;13.90;;;5.20;99.90;;;;;;4161739;28;20026;-64
2022/12/02 10:24:01;;;;;;;28.70;14.73;;;5.10;99.90;;;;;;4160885;28;20468;-63
2022/12/02 10:26:11;;;;;;;27.27;14.83;;;5.20;99.90;;;;;;4161187;28;20045;-65
2022/12/02 10:28:29;;;;;;;24.05;14.15;;;5.20;99.90;;;;;;4158462;28;20045;-64
2022/12/02 10:30:30;;;;;;;27.73;15.73;;;5.20;99.90;;;;;;4176079;28;20036;-64